CFA8 weather

Three Hills (Hospital) Heliport
Three Hills, Alberta, Canada

Public forecast

Using degrees Celsius for public forecast. Weather courtesy of forecast.io.

METAR (pilot weather report)

Closest report is Red Deer Regional Airport, 37.0 nm (68.6 km) NW. Retrieved 2019/09/15 04:00 UTC (30 minutes ago):

CYQF 150400Z 19006KT 15SM FEW120 BKN230 11/06 A2968 RMK AC2CI3 SLP063 DENSITY ALT 3500FT

TAF (pilot weather forecast)

Forecast is more than 12 hours old.

Closest forecast is Red Deer Regional Airport, 37.0 nm (68.6 km) NW. Retrieved 2019/09/14 00:39 UTC (1 day ago):

TAF CYQF 142338Z 1500/1512 VRB03KT P6SM FEW060 SCT120 BKN240 RMK NXT FCST BY 150600Z